sensor_id;sensor_type;location;lat;lon;timestamp;pressure;altitude;pressure_sealevel;temperature;humidity
60676;BME280;46716;38.014;-7.874;2022-10-15T00:00:17;100026.91;;;18.98;65.60
60676;BME280;46716;38.014;-7.874;2022-10-15T00:02:22;100030.03;;;19.03;66.00
60676;BME280;46716;38.014;-7.874;2022-10-15T00:04:25;100035.16;;;19.06;66.03
60676;BME280;46716;38.014;-7.874;2022-10-15T00:06:27;100012.44;;;18.89;66.13
60676;BME280;46716;38.014;-7.874;2022-10-15T00:08:28;100018.63;;;18.89;66.28
60676;BME280;46716;38.014;-7.874;2022-10-15T00:10:31;100049.00;;;19.00;66.37
60676;BME280;46716;38.014;-7.874;2022-10-15T00:12:37;100034.66;;;18.89;66.58
60676;BME280;46716;38.014;-7.874;2022-10-15T00:14:41;100032.81;;;18.67;67.56
60676;BME280;46716;38.014;-7.874;2022-10-15T00:16:43;100052.75;;;18.51;68.20
60676;BME280;46716;38.014;-7.874;2022-10-15T00:18:44;100041.50;;;18.23;69.19
60676;BME280;46716;38.014;-7.874;2022-10-15T00:20:51;100044.31;;;18.08;70.20
60676;BME280;46716;38.014;-7.874;2022-10-15T00:22:52;100038.72;;;18.00;70.56
60676;BME280;46716;38.014;-7.874;2022-10-15T00:24:56;100033.59;;;17.97;70.67
60676;BME280;46716;38.014;-7.874;2022-10-15T00:27:06;100035.19;;;18.00;70.56
60676;BME280;46716;38.014;-7.874;2022-10-15T00:29:07;100044.25;;;18.10;70.56
60676;BME280;46716;38.014;-7.874;2022-10-15T00:31:15;100017.00;;;18.05;70.57
60676;BME280;46716;38.014;-7.874;2022-10-15T00:33:26;100032.88;;;18.19;70.19
60676;BME280;46716;38.014;-7.874;2022-10-15T00:35:32;100033.22;;;18.26;69.86
60676;BME280;46716;38.014;-7.874;2022-10-15T00:37:33;100014.69;;;18.25;69.71
60676;BME280;46716;38.014;-7.874;2022-10-15T00:39:38;100033.16;;;18.39;69.67
60676;BME280;46716;38.014;-7.874;2022-10-15T00:41:43;100019.28;;;18.34;69.93
60676;BME280;46716;38.014;-7.874;2022-10-15T00:43:51;100023.81;;;18.33;69.58
60676;BME280;46716;38.014;-7.874;2022-10-15T00:45:53;100010.63;;;18.19;69.82
60676;BME280;46716;38.014;-7.874;2022-10-15T00:47:54;100027.75;;;18.16;70.11
60676;BME280;46716;38.014;-7.874;2022-10-15T00:50:14;100042.91;;;18.16;70.72
60676;BME280;46716;38.014;-7.874;2022-10-15T00:54:21;100017.91;;;17.92;71.68
60676;BME280;46716;38.014;-7.874;2022-10-15T00:56:25;100033.59;;;17.97;72.02
60676;BME280;46716;38.014;-7.874;2022-10-15T00:58:32;100012.53;;;17.81;72.09
60676;BME280;46716;38.014;-7.874;2022-10-15T01:00:36;100025.78;;;17.82;72.30
60676;BME280;46716;38.014;-7.874;2022-10-15T01:02:42;100028.78;;;17.78;72.92
60676;BME280;46716;38.014;-7.874;2022-10-15T01:04:44;100017.44;;;17.63;72.98
60676;BME280;46716;38.014;-7.874;2022-10-15T01:06:47;100024.56;;;17.62;73.45
60676;BME280;46716;38.014;-7.874;2022-10-15T01:08:57;100023.53;;;17.52;73.79
60676;BME280;46716;38.014;-7.874;2022-10-15T01:11:45;100028.28;;;17.48;74.07
60676;BME280;46716;38.014;-7.874;2022-10-15T01:19:48;100027.56;;;17.33;75.31
60676;BME280;46716;38.014;-7.874;2022-10-15T01:22:10;100033.44;;;17.25;75.69
60676;BME280;46716;38.014;-7.874;2022-10-15T01:34:35;100029.13;;;17.11;76.98
60676;BME280;46716;38.014;-7.874;2022-10-15T01:36:57;100020.66;;;17.04;77.37
60676;BME280;46716;38.014;-7.874;2022-10-15T01:41:43;100002.13;;;16.90;78.10
60676;BME280;46716;38.014;-7.874;2022-10-15T01:43:47;100019.19;;;17.00;77.62
60676;BME280;46716;38.014;-7.874;2022-10-15T01:46:20;99996.69;;;16.91;77.23
60676;BME280;46716;38.014;-7.874;2022-10-15T01:48:37;100007.88;;;16.97;77.44
60676;BME280;46716;38.014;-7.874;2022-10-15T01:50:46;99967.72;;;16.74;77.66
60676;BME280;46716;38.014;-7.874;2022-10-15T01:52:51;99995.94;;;16.89;77.78
60676;BME280;46716;38.014;-7.874;2022-10-15T01:54:58;99968.25;;;16.66;78.04
60676;BME280;46716;38.014;-7.874;2022-10-15T01:57:02;99975.59;;;16.75;78.35
60676;BME280;46716;38.014;-7.874;2022-10-15T01:59:12;99971.53;;;16.69;78.65
60676;BME280;46716;38.014;-7.874;2022-10-15T02:01:16;99973.78;;;16.76;78.27
60676;BME280;46716;38.014;-7.874;2022-10-15T02:03:18;99941.81;;;16.63;78.05
60676;BME280;46716;38.014;-7.874;2022-10-15T02:05:24;99978.47;;;16.85;78.04
60676;BME280;46716;38.014;-7.874;2022-10-15T02:15:17;99975.94;;;16.31;81.00
60676;BME280;46716;38.014;-7.874;2022-10-15T02:17:35;99944.81;;;16.06;81.60
60676;BME280;46716;38.014;-7.874;2022-10-15T02:19:55;99969.75;;;16.18;81.97
60676;BME280;46716;38.014;-7.874;2022-10-15T02:25:09;99945.78;;;16.05;84.04
60676;BME280;46716;38.014;-7.874;2022-10-15T02:27:32;99948.84;;;16.12;84.23
60676;BME280;46716;38.014;-7.874;2022-10-15T02:29:36;99945.69;;;16.07;83.91
60676;BME280;46716;38.014;-7.874;2022-10-15T02:32:00;99955.78;;;16.14;84.16
60676;BME280;46716;38.014;-7.874;2022-10-15T02:34:11;99932.25;;;16.08;83.92
60676;BME280;46716;38.014;-7.874;2022-10-15T02:36:15;99957.91;;;16.22;83.75
60676;BME280;46716;38.014;-7.874;2022-10-15T02:38:22;99944.09;;;16.17;83.86
60676;BME280;46716;38.014;-7.874;2022-10-15T02:40:27;99929.50;;;16.10;83.84
60676;BME280;46716;38.014;-7.874;2022-10-15T02:42:51;99939.69;;;16.16;83.63
60676;BME280;46716;38.014;-7.874;2022-10-15T02:45:04;99948.13;;;16.23;83.52
60676;BME280;46716;38.014;-7.874;2022-10-15T02:47:06;99932.66;;;16.28;84.16
60676;BME280;46716;38.014;-7.874;2022-10-15T02:49:07;99924.16;;;16.23;83.50
60676;BME280;46716;38.014;-7.874;2022-10-15T02:51:09;99910.84;;;16.10;83.56
60676;BME280;46716;38.014;-7.874;2022-10-15T02:53:12;99917.09;;;16.09;83.75
60676;BME280;46716;38.014;-7.874;2022-10-15T02:55:15;99928.84;;;16.06;84.13
60676;BME280;46716;38.014;-7.874;2022-10-15T02:57:20;99899.06;;;15.86;83.99
60676;BME280;46716;38.014;-7.874;2022-10-15T02:59:21;99898.53;;;15.81;84.50
60676;BME280;46716;38.014;-7.874;2022-10-15T03:01:23;99897.00;;;15.77;84.43
60676;BME280;46716;38.014;-7.874;2022-10-15T03:03:25;99906.84;;;15.76;85.12
60676;BME280;46716;38.014;-7.874;2022-10-15T03:05:27;99899.81;;;15.75;85.57
60676;BME280;46716;38.014;-7.874;2022-10-15T03:07:29;99900.44;;;15.79;85.41
60676;BME280;46716;38.014;-7.874;2022-10-15T03:09:33;99903.88;;;15.81;85.21
60676;BME280;46716;38.014;-7.874;2022-10-15T03:11:39;99909.59;;;15.88;85.49
60676;BME280;46716;38.014;-7.874;2022-10-15T03:14:01;99889.78;;;15.79;85.52
60676;BME280;46716;38.014;-7.874;2022-10-15T03:16:10;99882.53;;;15.68;85.76
60676;BME280;46716;38.014;-7.874;2022-10-15T03:18:13;99892.66;;;15.76;85.59
60676;BME280;46716;38.014;-7.874;2022-10-15T03:20:14;99895.53;;;15.73;85.96
60676;BME280;46716;38.014;-7.874;2022-10-15T03:22:16;99893.84;;;15.72;85.83
60676;BME280;46716;38.014;-7.874;2022-10-15T03:24:25;99892.88;;;15.73;86.35
60676;BME280;46716;38.014;-7.874;2022-10-15T03:26:27;99900.84;;;15.73;86.79
60676;BME280;46716;38.014;-7.874;2022-10-15T03:28:30;99888.28;;;15.62;86.91
60676;BME280;46716;38.014;-7.874;2022-10-15T03:30:31;99897.88;;;15.64;87.20
60676;BME280;46716;38.014;-7.874;2022-10-15T03:32:35;99889.31;;;15.59;87.83
60676;BME280;46716;38.014;-7.874;2022-10-15T03:34:41;99904.88;;;15.65;87.51
60676;BME280;46716;38.014;-7.874;2022-10-15T03:36:46;99900.53;;;15.64;87.90
60676;BME280;46716;38.014;-7.874;2022-10-15T03:38:50;99888.03;;;15.52;88.36
60676;BME280;46716;38.014;-7.874;2022-10-15T03:40:55;99896.59;;;15.57;88.00
60676;BME280;46716;38.014;-7.874;2022-10-15T03:43:16;99886.84;;;15.43;88.73
60676;BME280;46716;38.014;-7.874;2022-10-15T03:45:19;99908.69;;;15.48;88.49
60676;BME280;46716;38.014;-7.874;2022-10-15T03:47:25;99896.97;;;15.38;89.20
60676;BME280;46716;38.014;-7.874;2022-10-15T03:49:31;99907.69;;;15.36;88.88
60676;BME280;46716;38.014;-7.874;2022-10-15T03:51:34;99924.59;;;15.35;88.73
60676;BME280;46716;38.014;-7.874;2022-10-15T03:53:45;99905.16;;;15.20;88.84
60676;BME280;46716;38.014;-7.874;2022-10-15T03:55:46;99888.63;;;15.02;88.75
60676;BME280;46716;38.014;-7.874;2022-10-15T03:57:47;99898.50;;;15.00;89.20
60676;BME280;46716;38.014;-7.874;2022-10-15T03:59:52;99917.88;;;15.02;89.61
60676;BME280;46716;38.014;-7.874;2022-10-15T04:01:58;99903.38;;;14.93;90.42
60676;BME280;46716;38.014;-7.874;2022-10-15T04:04:01;99899.28;;;14.87;90.82
60676;BME280;46716;38.014;-7.874;2022-10-15T04:06:02;99901.75;;;14.90;91.70
60676;BME280;46716;38.014;-7.874;2022-10-15T04:08:08;99904.59;;;14.87;91.42
60676;BME280;46716;38.014;-7.874;2022-10-15T04:10:16;99898.63;;;14.84;92.11
60676;BME280;46716;38.014;-7.874;2022-10-15T04:12:19;99899.00;;;14.77;92.49
60676;BME280;46716;38.014;-7.874;2022-10-15T04:14:26;99906.19;;;14.75;92.56
60676;BME280;46716;38.014;-7.874;2022-10-15T04:16:32;99906.13;;;14.62;93.19
60676;BME280;46716;38.014;-7.874;2022-10-15T04:18:53;99894.75;;;14.46;94.58
60676;BME280;46716;38.014;-7.874;2022-10-15T04:20:57;99904.72;;;14.42;95.75
60676;BME280;46716;38.014;-7.874;2022-10-15T04:23:10;99891.72;;;14.37;96.37
60676;BME280;46716;38.014;-7.874;2022-10-15T04:25:14;99898.38;;;14.45;97.53
60676;BME280;46716;38.014;-7.874;2022-10-15T04:27:16;99899.50;;;14.55;98.19
60676;BME280;46716;38.014;-7.874;2022-10-15T04:29:20;99896.06;;;14.53;98.13
60676;BME280;46716;38.014;-7.874;2022-10-15T04:31:22;99903.28;;;14.65;98.12
60676;BME280;46716;38.014;-7.874;2022-10-15T04:33:27;99895.97;;;14.69;97.67
60676;BME280;46716;38.014;-7.874;2022-10-15T04:35:31;99897.88;;;14.67;96.91
60676;BME280;46716;38.014;-7.874;2022-10-15T04:37:40;99894.66;;;14.62;96.05
60676;BME280;46716;38.014;-7.874;2022-10-15T04:39:43;99883.38;;;14.58;96.08
60676;BME280;46716;38.014;-7.874;2022-10-15T04:41:47;99893.81;;;14.61;97.04
60676;BME280;46716;38.014;-7.874;2022-10-15T04:43:57;99889.06;;;14.52;97.77
60676;BME280;46716;38.014;-7.874;2022-10-15T04:46:03;99888.50;;;14.61;97.89
60676;BME280;46716;38.014;-7.874;2022-10-15T04:48:04;99875.03;;;14.50;97.46
60676;BME280;46716;38.014;-7.874;2022-10-15T04:50:06;99886.59;;;14.49;97.33
60676;BME280;46716;38.014;-7.874;2022-10-15T04:52:27;99891.81;;;14.50;98.04
60676;BME280;46716;38.014;-7.874;2022-10-15T04:54:31;99901.28;;;14.54;98.28
60676;BME280;46716;38.014;-7.874;2022-10-15T04:56:37;99885.66;;;14.50;97.99
60676;BME280;46716;38.014;-7.874;2022-10-15T04:58:38;99892.69;;;14.51;98.77
60676;BME280;46716;38.014;-7.874;2022-10-15T05:00:39;99893.31;;;14.54;99.66
60676;BME280;46716;38.014;-7.874;2022-10-15T05:03:10;99879.41;;;14.51;100.00
60676;BME280;46716;38.014;-7.874;2022-10-15T05:05:22;99886.22;;;14.55;99.64
60676;BME280;46716;38.014;-7.874;2022-10-15T05:07:30;99881.00;;;14.53;100.00
60676;BME280;46716;38.014;-7.874;2022-10-15T05:09:32;99871.91;;;14.43;100.00
60676;BME280;46716;38.014;-7.874;2022-10-15T05:11:35;99879.00;;;14.42;100.00
60676;BME280;46716;38.014;-7.874;2022-10-15T05:13:45;99868.78;;;14.36;100.00
60676;BME280;46716;38.014;-7.874;2022-10-15T05:15:46;99877.69;;;14.35;100.00
60676;BME280;46716;38.014;-7.874;2022-10-15T05:17:47;99883.19;;;14.32;100.00
60676;BME280;46716;38.014;-7.874;2022-10-15T05:19:49;99883.41;;;14.29;100.00
60676;BME280;46716;38.014;-7.874;2022-10-15T05:21:54;99896.97;;;14.24;100.00
60676;BME280;46716;38.014;-7.874;2022-10-15T05:23:59;99907.75;;;14.21;100.00
60676;BME280;46716;38.014;-7.874;2022-10-15T05:26:24;99886.41;;;14.08;100.00
60676;BME280;46716;38.014;-7.874;2022-10-15T05:28:25;99894.94;;;14.13;100.00
60676;BME280;46716;38.014;-7.874;2022-10-15T05:30:26;99894.00;;;14.14;100.00
60676;BME280;46716;38.014;-7.874;2022-10-15T05:32:28;99900.16;;;14.15;100.00
60676;BME280;46716;38.014;-7.874;2022-10-15T05:34:31;99906.44;;;14.14;100.00
60676;BME280;46716;38.014;-7.874;2022-10-15T05:36:38;99915.41;;;14.11;100.00
60676;BME280;46716;38.014;-7.874;2022-10-15T05:38:40;99913.16;;;14.05;100.00
60676;BME280;46716;38.014;-7.874;2022-10-15T05:40:47;99926.13;;;14.10;100.00
60676;BME280;46716;38.014;-7.874;2022-10-15T05:42:56;99904.03;;;13.95;100.00
60676;BME280;46716;38.014;-7.874;2022-10-15T05:44:57;99913.53;;;13.99;100.00
60676;BME280;46716;38.014;-7.874;2022-10-15T05:47:01;99903.44;;;13.89;100.00
60676;BME280;46716;38.014;-7.874;2022-10-15T05:49:06;99921.56;;;13.97;100.00
60676;BME280;46716;38.014;-7.874;2022-10-15T05:51:21;99922.22;;;14.01;100.00
60676;BME280;46716;38.014;-7.874;2022-10-15T05:53:23;99908.41;;;13.96;100.00
60676;BME280;46716;38.014;-7.874;2022-10-15T05:55:37;99904.22;;;13.91;100.00
60676;BME280;46716;38.014;-7.874;2022-10-15T05:57:38;99905.66;;;13.97;100.00
60676;BME280;46716;38.014;-7.874;2022-10-15T05:59:42;99918.34;;;14.07;100.00
60676;BME280;46716;38.014;-7.874;2022-10-15T06:01:43;99885.75;;;13.90;100.00
60676;BME280;46716;38.014;-7.874;2022-10-15T06:03:44;99909.72;;;14.03;100.00
60676;BME280;46716;38.014;-7.874;2022-10-15T06:05:45;99885.47;;;13.95;100.00
60676;BME280;46716;38.014;-7.874;2022-10-15T06:07:46;99904.78;;;14.11;100.00
60676;BME280;46716;38.014;-7.874;2022-10-15T06:09:48;99909.00;;;14.15;100.00
60676;BME280;46716;38.014;-7.874;2022-10-15T06:11:51;99885.75;;;14.04;100.00
60676;BME280;46716;38.014;-7.874;2022-10-15T06:13:52;99883.47;;;13.98;100.00
60676;BME280;46716;38.014;-7.874;2022-10-15T06:15:53;99907.16;;;14.01;100.00
60676;BME280;46716;38.014;-7.874;2022-10-15T06:17:54;99910.44;;;13.90;100.00
60676;BME280;46716;38.014;-7.874;2022-10-15T06:19:57;99897.34;;;13.73;100.00
60676;BME280;46716;38.014;-7.874;2022-10-15T06:21:58;99898.91;;;13.61;100.00
60676;BME280;46716;38.014;-7.874;2022-10-15T06:24:00;99881.50;;;13.40;100.00
60676;BME280;46716;38.014;-7.874;2022-10-15T06:26:07;99873.22;;;13.31;100.00
60676;BME280;46716;38.014;-7.874;2022-10-15T06:28:09;99892.28;;;13.37;100.00
60676;BME280;46716;38.014;-7.874;2022-10-15T06:30:15;99893.50;;;13.32;100.00
60676;BME280;46716;38.014;-7.874;2022-10-15T06:32:16;99914.25;;;13.39;100.00
60676;BME280;46716;38.014;-7.874;2022-10-15T06:34:18;99919.28;;;13.44;100.00
60676;BME280;46716;38.014;-7.874;2022-10-15T06:36:19;99887.94;;;13.36;100.00
60676;BME280;46716;38.014;-7.874;2022-10-15T06:38:24;99893.63;;;13.45;100.00
60676;BME280;46716;38.014;-7.874;2022-10-15T06:40:25;99914.75;;;13.46;100.00
60676;BME280;46716;38.014;-7.874;2022-10-15T06:42:26;99900.06;;;13.40;100.00
60676;BME280;46716;38.014;-7.874;2022-10-15T06:44:32;99925.44;;;13.61;100.00
60676;BME280;46716;38.014;-7.874;2022-10-15T06:46:33;99910.06;;;13.51;100.00
60676;BME280;46716;38.014;-7.874;2022-10-15T06:48:34;99912.81;;;13.50;100.00
60676;BME280;46716;38.014;-7.874;2022-10-15T06:50:37;99912.19;;;13.45;100.00
60676;BME280;46716;38.014;-7.874;2022-10-15T06:52:44;99908.94;;;13.39;100.00
60676;BME280;46716;38.014;-7.874;2022-10-15T06:54:45;99922.88;;;13.43;100.00
60676;BME280;46716;38.014;-7.874;2022-10-15T06:56:48;99919.28;;;13.44;100.00
60676;BME280;46716;38.014;-7.874;2022-10-15T06:58:50;99909.72;;;13.41;100.00
60676;BME280;46716;38.014;-7.874;2022-10-15T07:00:52;99911.25;;;13.46;100.00
60676;BME280;46716;38.014;-7.874;2022-10-15T07:03:04;99918.88;;;13.52;100.00
60676;BME280;46716;38.014;-7.874;2022-10-15T07:05:06;99915.88;;;13.58;100.00
60676;BME280;46716;38.014;-7.874;2022-10-15T07:07:07;99901.84;;;13.56;100.00
60676;BME280;46716;38.014;-7.874;2022-10-15T07:09:08;99905.28;;;13.58;100.00
60676;BME280;46716;38.014;-7.874;2022-10-15T07:11:09;99910.22;;;13.64;100.00
60676;BME280;46716;38.014;-7.874;2022-10-15T07:13:12;99917.72;;;13.72;100.00
60676;BME280;46716;38.014;-7.874;2022-10-15T07:15:14;99938.91;;;13.88;100.00
60676;BME280;46716;38.014;-7.874;2022-10-15T07:17:18;99931.13;;;13.85;100.00
60676;BME280;46716;38.014;-7.874;2022-10-15T07:19:19;99917.94;;;13.84;100.00
60676;BME280;46716;38.014;-7.874;2022-10-15T07:21:21;99920.59;;;13.84;100.00
60676;BME280;46716;38.014;-7.874;2022-10-15T07:23:22;99929.81;;;13.93;100.00
60676;BME280;46716;38.014;-7.874;2022-10-15T07:25:24;99938.16;;;14.01;100.00
60676;BME280;46716;38.014;-7.874;2022-10-15T07:27:25;99945.22;;;14.16;100.00
60676;BME280;46716;38.014;-7.874;2022-10-15T07:29:28;99941.31;;;14.22;100.00
60676;BME280;46716;38.014;-7.874;2022-10-15T07:31:31;99951.84;;;14.38;100.00
60676;BME280;46716;38.014;-7.874;2022-10-15T07:33:33;99938.31;;;14.43;100.00
60676;BME280;46716;38.014;-7.874;2022-10-15T07:35:36;99944.56;;;14.57;100.00
60676;BME280;46716;38.014;-7.874;2022-10-15T07:37:41;99937.44;;;14.72;100.00
60676;BME280;46716;38.014;-7.874;2022-10-15T07:39:41;99944.59;;;14.86;100.00
60676;BME280;46716;38.014;-7.874;2022-10-15T07:41:42;99946.34;;;15.00;100.00
60676;BME280;46716;38.014;-7.874;2022-10-15T07:43:43;99942.34;;;15.07;100.00
60676;BME280;46716;38.014;-7.874;2022-10-15T07:45:47;99931.22;;;15.15;100.00
60676;BME280;46716;38.014;-7.874;2022-10-15T07:47:49;99930.97;;;15.33;100.00
60676;BME280;46716;38.014;-7.874;2022-10-15T07:49:51;99930.66;;;15.37;100.00
60676;BME280;46716;38.014;-7.874;2022-10-15T07:51:52;99933.91;;;15.42;99.67
60676;BME280;46716;38.014;-7.874;2022-10-15T07:53:55;99938.88;;;15.47;99.70
60676;BME280;46716;38.014;-7.874;2022-10-15T07:58:14;99947.75;;;15.61;99.51
60676;BME280;46716;38.014;-7.874;2022-10-15T08:00:16;99945.75;;;15.64;99.19
60676;BME280;46716;38.014;-7.874;2022-10-15T08:02:17;99933.00;;;15.70;99.03
60676;BME280;46716;38.014;-7.874;2022-10-15T08:04:26;99946.47;;;15.94;97.82
60676;BME280;46716;38.014;-7.874;2022-10-15T08:06:27;99945.69;;;16.07;97.20
60676;BME280;46716;38.014;-7.874;2022-10-15T08:08:28;99945.47;;;16.23;97.12
60676;BME280;46716;38.014;-7.874;2022-10-15T08:10:29;99956.56;;;16.42;95.14
60676;BME280;46716;38.014;-7.874;2022-10-15T08:12:30;99927.34;;;16.41;94.27
60676;BME280;46716;38.014;-7.874;2022-10-15T08:14:33;99957.78;;;16.76;92.31
60676;BME280;46716;38.014;-7.874;2022-10-15T08:16:35;99943.50;;;16.77;91.68
60676;BME280;46716;38.014;-7.874;2022-10-15T08:18:36;99942.72;;;16.88;91.27
60676;BME280;46716;38.014;-7.874;2022-10-15T08:20:38;99952.28;;;17.03;90.51
60676;BME280;46716;38.014;-7.874;2022-10-15T08:22:39;99954.44;;;17.11;89.81
60676;BME280;46716;38.014;-7.874;2022-10-15T08:24:40;99962.72;;;17.19;89.72
60676;BME280;46716;38.014;-7.874;2022-10-15T08:26:41;99947.69;;;17.18;89.89
60676;BME280;46716;38.014;-7.874;2022-10-15T08:28:42;99958.09;;;17.35;89.78
60676;BME280;46716;38.014;-7.874;2022-10-15T08:30:43;99961.47;;;17.37;90.05
60676;BME280;46716;38.014;-7.874;2022-10-15T08:32:45;99953.03;;;17.43;89.72
60676;BME280;46716;38.014;-7.874;2022-10-15T08:34:46;99967.59;;;17.50;88.93
60676;BME280;46716;38.014;-7.874;2022-10-15T08:36:47;99950.88;;;17.48;88.52
60676;BME280;46716;38.014;-7.874;2022-10-15T08:38:48;99963.66;;;17.56;88.44
60676;BME280;46716;38.014;-7.874;2022-10-15T08:40:51;99965.84;;;17.62;88.96
60676;BME280;46716;38.014;-7.874;2022-10-15T08:42:52;99966.50;;;17.77;89.16
60676;BME280;46716;38.014;-7.874;2022-10-15T08:44:57;99981.88;;;17.98;88.56
60676;BME280;46716;38.014;-7.874;2022-10-15T08:47:30;99974.09;;;18.19;86.91
60676;BME280;46716;38.014;-7.874;2022-10-15T08:49:44;99985.19;;;18.49;85.25
60676;BME280;46716;38.014;-7.874;2022-10-15T08:51:50;99987.50;;;18.77;84.74
60676;BME280;46716;38.014;-7.874;2022-10-15T08:53:57;99982.03;;;19.13;83.63
60676;BME280;46716;38.014;-7.874;2022-10-15T08:56:02;99985.97;;;19.53;81.70
60676;BME280;46716;38.014;-7.874;2022-10-15T08:58:22;99979.41;;;20.00;80.56
60676;BME280;46716;38.014;-7.874;2022-10-15T09:00:40;99967.34;;;20.27;75.20
60676;BME280;46716;38.014;-7.874;2022-10-15T09:02:51;99973.19;;;20.63;74.81
60676;BME280;46716;38.014;-7.874;2022-10-15T09:05:21;99987.91;;;21.10;72.55
60676;BME280;46716;38.014;-7.874;2022-10-15T09:07:38;99980.09;;;21.48;70.83
60676;BME280;46716;38.014;-7.874;2022-10-15T09:09:56;99983.25;;;21.83;69.28
60676;BME280;46716;38.014;-7.874;2022-10-15T09:14:32;99984.28;;;22.40;65.57
60676;BME280;46716;38.014;-7.874;2022-10-15T09:16:37;99977.88;;;22.60;64.06
60676;BME280;46716;38.014;-7.874;2022-10-15T09:18:43;99986.47;;;22.74;64.13
60676;BME280;46716;38.014;-7.874;2022-10-15T09:20:46;99987.22;;;22.94;62.69
60676;BME280;46716;38.014;-7.874;2022-10-15T09:22:50;99994.34;;;23.14;61.58
60676;BME280;46716;38.014;-7.874;2022-10-15T09:24:52;99975.13;;;23.08;60.75
60676;BME280;46716;38.014;-7.874;2022-10-15T09:29:30;99988.97;;;23.60;60.11
60676;BME280;46716;38.014;-7.874;2022-10-15T09:34:13;99973.59;;;23.97;58.95
60676;BME280;46716;38.014;-7.874;2022-10-15T09:36:41;99952.94;;;24.06;57.79
60676;BME280;46716;38.014;-7.874;2022-10-15T09:44:00;99944.88;;;24.67;57.33
60676;BME280;46716;38.014;-7.874;2022-10-15T09:46:12;99972.91;;;25.01;55.98
60676;BME280;46716;38.014;-7.874;2022-10-15T09:48:35;99951.16;;;25.03;56.15
60676;BME280;46716;38.014;-7.874;2022-10-15T09:50:43;99962.50;;;25.31;55.48
60676;BME280;46716;38.014;-7.874;2022-10-15T09:55:39;99972.22;;;25.84;55.13
60676;BME280;46716;38.014;-7.874;2022-10-15T09:57:48;99943.47;;;25.91;53.28
60676;BME280;46716;38.014;-7.874;2022-10-15T09:59:57;99956.66;;;26.11;53.35
60676;BME280;46716;38.014;-7.874;2022-10-15T10:02:24;99971.53;;;26.40;51.87
60676;BME280;46716;38.014;-7.874;2022-10-15T10:04:45;99960.69;;;26.40;50.09
60676;BME280;46716;38.014;-7.874;2022-10-15T10:07:24;99954.63;;;26.30;50.61
60676;BME280;46716;38.014;-7.874;2022-10-15T10:09:37;99977.41;;;26.52;49.84
60676;BME280;46716;38.014;-7.874;2022-10-15T10:11:50;99975.47;;;26.69;51.04
60676;BME280;46716;38.014;-7.874;2022-10-15T10:13:57;99964.94;;;26.83;47.82
60676;BME280;46716;38.014;-7.874;2022-10-15T10:16:05;99966.63;;;26.84;48.06
60676;BME280;46716;38.014;-7.874;2022-10-15T10:18:26;99962.91;;;26.85;47.84
60676;BME280;46716;38.014;-7.874;2022-10-15T10:20:29;99967.59;;;26.91;48.38
60676;BME280;46716;38.014;-7.874;2022-10-15T10:22:47;99972.88;;;27.24;47.59
60676;BME280;46716;38.014;-7.874;2022-10-15T10:24:48;99971.22;;;27.47;47.14
60676;BME280;46716;38.014;-7.874;2022-10-15T10:26:49;99971.34;;;27.53;45.99
60676;BME280;46716;38.014;-7.874;2022-10-15T10:28:58;99965.44;;;27.50;45.54
60676;BME280;46716;38.014;-7.874;2022-10-15T10:31:05;99968.25;;;27.57;44.83
60676;BME280;46716;38.014;-7.874;2022-10-15T10:33:12;99965.06;;;27.53;44.96
60676;BME280;46716;38.014;-7.874;2022-10-15T10:35:22;99963.28;;;27.69;45.04
60676;BME280;46716;38.014;-7.874;2022-10-15T10:37:55;99955.34;;;27.67;44.21
60676;BME280;46716;38.014;-7.874;2022-10-15T10:39:59;99965.56;;;27.80;44.42
60676;BME280;46716;38.014;-7.874;2022-10-15T10:42:03;99954.09;;;27.93;44.54
60676;BME280;46716;38.014;-7.874;2022-10-15T10:44:18;99953.94;;;28.10;43.69
60676;BME280;46716;38.014;-7.874;2022-10-15T10:46:21;99952.91;;;28.11;43.57
60676;BME280;46716;38.014;-7.874;2022-10-15T10:48:36;99937.75;;;28.16;44.07
60676;BME280;46716;38.014;-7.874;2022-10-15T10:50:38;99933.41;;;28.31;43.73
60676;BME280;46716;38.014;-7.874;2022-10-15T10:52:40;99936.56;;;28.49;42.04
60676;BME280;46716;38.014;-7.874;2022-10-15T10:55:30;99945.63;;;28.72;42.57
60676;BME280;46716;38.014;-7.874;2022-10-15T10:57:12;99924.88;;;28.64;42.05
60676;BME280;46716;38.014;-7.874;2022-10-15T10:59:49;99924.94;;;28.71;42.17
60676;BME280;46716;38.014;-7.874;2022-10-15T11:01:51;99933.34;;;28.91;41.84
60676;BME280;46716;38.014;-7.874;2022-10-15T11:03:53;99948.06;;;29.34;40.61
60676;BME280;46716;38.014;-7.874;2022-10-15T11:06:15;99945.19;;;29.42;41.05
60676;BME280;46716;38.014;-7.874;2022-10-15T11:08:34;99945.69;;;29.67;41.17
60676;BME280;46716;38.014;-7.874;2022-10-15T11:10:59;99942.75;;;29.91;39.87
60676;BME280;46716;38.014;-7.874;2022-10-15T11:15:48;99938.69;;;30.09;39.49
60676;BME280;46716;38.014;-7.874;2022-10-15T11:25:14;99950.53;;;31.14;37.01
60676;BME280;46716;38.014;-7.874;2022-10-15T11:30:12;99944.97;;;31.36;36.61
60676;BME280;46716;38.014;-7.874;2022-10-15T11:35:06;99940.09;;;31.31;36.42
60676;BME280;46716;38.014;-7.874;2022-10-15T11:42:18;99928.38;;;31.91;35.69
60676;BME280;46716;38.014;-7.874;2022-10-15T11:44:44;99931.97;;;32.05;36.54
60676;BME280;46716;38.014;-7.874;2022-10-15T11:49:09;99925.97;;;32.63;35.07
60676;BME280;46716;38.014;-7.874;2022-10-15T11:51:43;99929.53;;;32.70;33.81
60676;BME280;46716;38.014;-7.874;2022-10-15T11:56:22;99905.16;;;32.62;34.19
60676;BME280;46716;38.014;-7.874;2022-10-15T11:59:14;99931.09;;;32.91;33.42
60676;BME280;46716;38.014;-7.874;2022-10-15T12:01:07;99894.97;;;32.83;33.37
60676;BME280;46716;38.014;-7.874;2022-10-15T12:03:18;99916.16;;;32.94;32.66
60676;BME280;46716;38.014;-7.874;2022-10-15T12:07:36;99898.19;;;32.73;33.73
60676;BME280;46716;38.014;-7.874;2022-10-15T12:09:47;99886.22;;;32.67;33.89
60676;BME280;46716;38.014;-7.874;2022-10-15T12:16:45;99900.94;;;33.12;32.44
60676;BME280;46716;38.014;-7.874;2022-10-15T12:19:14;99864.75;;;32.71;32.89
60676;BME280;46716;38.014;-7.874;2022-10-15T12:21:39;99885.34;;;32.73;33.67